createdAt,value
2019-02-05T00:01:42.762Z,6.97
2019-02-05T00:04:12.542Z,6.53
2019-02-05T00:06:42.192Z,6.48
2019-02-05T00:09:13.770Z,6.51
2019-02-05T00:11:43.438Z,6.42
2019-02-05T00:14:13.522Z,6.43
2019-02-05T00:16:43.640Z,6.39
2019-02-05T00:19:13.507Z,6.36
2019-02-05T00:21:43.184Z,5.64
2019-02-05T00:24:12.897Z,5.93
2019-02-05T00:26:42.568Z,9.90
2019-02-05T00:29:12.321Z,6.74
2019-02-05T00:31:41.989Z,5.99
2019-02-05T00:34:11.637Z,5.33
2019-02-05T00:36:41.490Z,6.17
2019-02-05T00:39:11.175Z,5.98
2019-02-05T00:41:40.980Z,6.17
2019-02-05T00:44:10.891Z,6.07
2019-02-05T00:46:40.563Z,6.02
2019-02-05T00:49:10.168Z,6.43
2019-02-05T00:51:39.891Z,5.65
2019-02-05T00:54:09.717Z,5.39
2019-02-05T00:56:39.600Z,6.11
2019-02-05T00:59:09.875Z,6.00
2019-02-05T01:01:39.552Z,5.68
2019-02-05T01:04:09.301Z,5.03
2019-02-05T01:06:38.946Z,5.37
2019-02-05T01:09:10.661Z,5.68
2019-02-05T01:11:40.301Z,6.12
2019-02-05T01:14:10.152Z,5.62
2019-02-05T01:16:39.712Z,7.71
2019-02-05T01:19:09.586Z,6.13
2019-02-05T01:21:39.281Z,5.17
2019-02-05T01:24:09.110Z,5.77
2019-02-05T01:26:39.428Z,5.63
2019-02-05T01:29:09.366Z,4.76
2019-02-05T01:31:39.003Z,5.31
2019-02-05T01:34:08.698Z,5.61
2019-02-05T01:36:38.260Z,5.83
2019-02-05T01:39:08.807Z,5.40
2019-02-05T01:41:38.665Z,5.11
2019-02-05T01:44:08.801Z,5.31
2019-02-05T01:46:38.372Z,4.93
2019-02-05T01:49:08.026Z,5.05
2019-02-05T01:51:37.690Z,5.16
2019-02-05T01:54:07.361Z,5.31
2019-02-05T01:56:40.770Z,5.49
2019-02-05T01:59:08.561Z,5.17
2019-02-05T02:01:38.279Z,5.06
2019-02-05T02:04:08.276Z,5.32
2019-02-05T02:06:37.966Z,5.90
2019-02-05T02:09:08.131Z,5.23
2019-02-05T02:11:38.039Z,4.84
2019-02-05T02:14:14.879Z,5.32
2019-02-05T02:16:44.490Z,4.99
2019-02-05T02:19:14.175Z,5.43
2019-02-05T02:21:43.855Z,5.29
2019-02-05T02:24:13.565Z,5.27
2019-02-05T02:26:51.805Z,5.39
2019-02-05T02:29:14.518Z,5.08
2019-02-05T02:31:44.239Z,5.05
2019-02-05T02:34:13.819Z,4.98
2019-02-05T02:36:43.852Z,5.22
2019-02-05T02:39:13.427Z,5.01
2019-02-05T02:41:43.297Z,5.27
2019-02-05T02:44:12.926Z,5.06
2019-02-05T02:46:42.809Z,5.38
2019-02-05T02:49:12.743Z,5.34
2019-02-05T02:51:42.965Z,5.21
2019-02-05T02:54:12.586Z,5.03
2019-02-05T02:56:42.328Z,5.01
2019-02-05T02:59:11.896Z,5.07
2019-02-05T03:01:41.760Z,5.45
2019-02-05T03:04:11.425Z,5.26
2019-02-05T03:06:41.456Z,5.43
2019-02-05T03:09:11.332Z,5.84
2019-02-05T03:11:41.084Z,5.18
2019-02-05T03:14:11.087Z,5.65
2019-02-05T03:16:40.900Z,5.93
2019-02-05T03:19:10.622Z,5.65
2019-02-05T03:21:40.359Z,5.00
2019-02-05T03:24:09.875Z,5.91
2019-02-05T03:26:39.729Z,5.74
2019-02-05T03:29:09.365Z,5.26
2019-02-05T03:31:39.216Z,5.51
2019-02-05T03:34:09.027Z,5.66
2019-02-05T03:36:38.672Z,5.70
2019-02-05T03:39:08.805Z,5.82
2019-02-05T03:41:38.455Z,5.39
2019-02-05T03:44:08.284Z,4.84
2019-02-05T03:46:38.070Z,4.96
2019-02-05T03:49:08.015Z,4.89
2019-02-05T03:51:45.041Z,5.28
2019-02-05T03:54:49.922Z,5.06
2019-02-05T03:57:36.013Z,5.51
2019-02-05T04:00:19.121Z,5.47
2019-02-05T04:03:05.327Z,5.26
2019-02-05T04:05:54.703Z,5.83
2019-02-05T04:08:53.006Z,5.51
2019-02-05T04:11:45.231Z,5.71
2019-02-05T04:14:40.191Z,4.85
2019-02-05T04:17:20.261Z,5.21
2019-02-05T04:20:00.327Z,5.22
2019-02-05T04:23:03.594Z,4.73
2019-02-05T04:26:22.061Z,5.25
2019-02-05T04:29:01.738Z,5.24
2019-02-05T04:32:05.695Z,5.45
2019-02-05T04:34:45.802Z,6.03
2019-02-05T04:37:58.031Z,4.76
2019-02-05T04:40:59.734Z,5.65
2019-02-05T04:43:45.928Z,5.50
2019-02-05T04:46:38.035Z,5.40
2019-02-05T04:49:33.280Z,4.83
2019-02-05T04:52:30.528Z,5.22
2019-02-05T04:55:32.049Z,5.50
2019-02-05T04:58:30.564Z,5.69
2019-02-05T05:01:37.899Z,5.98
2019-02-05T05:04:17.422Z,5.55
2019-02-05T05:06:54.851Z,5.61
2019-02-05T05:09:44.178Z,5.50
2019-02-05T05:12:13.771Z,5.11
2019-02-05T05:14:43.792Z,5.54
2019-02-05T05:17:13.351Z,5.03
2019-02-05T05:19:43.328Z,5.55
2019-02-05T05:22:13.260Z,5.92
2019-02-05T05:24:43.753Z,6.34
2019-02-05T05:27:16.473Z,5.92
2019-02-05T05:29:46.653Z,6.03
2019-02-05T05:32:16.603Z,5.78
2019-02-05T05:34:46.293Z,5.62
2019-02-05T05:37:14.368Z,5.22
2019-02-05T05:39:44.014Z,5.65
2019-02-05T05:42:13.660Z,5.86
2019-02-05T05:44:43.947Z,6.19
2019-02-05T05:47:13.652Z,6.12
2019-02-05T05:49:43.752Z,5.79
2019-02-05T05:52:13.625Z,5.99
2019-02-05T05:54:43.190Z,5.51
2019-02-05T05:57:13.048Z,5.57
2019-02-05T05:59:42.819Z,5.62
2019-02-05T06:02:12.571Z,4.98
2019-02-05T06:04:42.277Z,5.33
2019-02-05T06:07:11.878Z,5.24
2019-02-05T06:09:42.110Z,6.00
2019-02-05T06:12:11.900Z,5.57
2019-02-05T06:14:41.828Z,5.54
2019-02-05T06:17:11.621Z,5.76
2019-02-05T06:19:41.500Z,5.41
2019-02-05T06:22:11.148Z,5.04
2019-02-05T06:24:40.897Z,5.48
2019-02-05T06:27:10.784Z,6.22
2019-02-05T06:29:40.377Z,4.82
2019-02-05T06:32:10.305Z,5.54
2019-02-05T06:34:40.159Z,5.76
2019-02-05T06:37:09.700Z,7.43
2019-02-05T06:39:39.503Z,7.92
2019-02-05T06:42:09.108Z,7.19
2019-02-05T06:44:39.148Z,6.83
2019-02-05T06:47:09.179Z,7.31
2019-02-05T06:49:38.879Z,7.59
2019-02-05T06:52:08.548Z,7.34
2019-02-05T06:54:38.237Z,8.10
2019-02-05T06:57:07.923Z,7.81
2019-02-05T06:59:37.628Z,7.22
2019-02-05T07:02:09.910Z,7.83
2019-02-05T07:04:39.572Z,6.00
2019-02-05T07:07:09.164Z,6.78
2019-02-05T07:09:38.988Z,7.39
2019-02-05T07:12:08.598Z,7.82
2019-02-05T07:14:38.341Z,8.03
2019-02-05T07:17:08.640Z,7.94
2019-02-05T07:19:38.139Z,7.27
2019-02-05T07:22:07.990Z,6.79
2019-02-05T07:24:37.675Z,5.69
2019-02-05T07:27:07.904Z,7.24
2019-02-05T07:29:37.911Z,6.78
2019-02-05T07:32:08.242Z,6.85
2019-02-05T07:34:37.950Z,6.83
2019-02-05T07:37:07.664Z,6.59
2019-02-05T07:39:37.409Z,6.58
2019-02-05T07:42:07.139Z,6.77
2019-02-05T07:44:36.709Z,7.23
2019-02-05T07:47:07.104Z,7.09
2019-02-05T07:49:37.235Z,7.23
2019-02-05T07:52:07.352Z,6.90
2019-02-05T07:54:36.926Z,7.31
2019-02-05T07:57:06.790Z,6.91
2019-02-05T07:59:36.509Z,7.58
2019-02-05T08:02:06.286Z,7.08
2019-02-05T08:04:35.869Z,5.84
2019-02-05T08:07:07.698Z,6.70
2019-02-05T08:09:37.893Z,7.81
2019-02-05T08:12:07.615Z,7.69
2019-02-05T08:14:37.613Z,7.63
2019-02-05T08:17:07.417Z,7.51
2019-02-05T08:19:37.092Z,7.13
2019-02-05T08:22:06.818Z,7.38
2019-02-05T08:24:37.011Z,7.23
2019-02-05T08:27:06.703Z,6.48
2019-02-05T08:29:36.463Z,7.05
2019-02-05T08:32:06.317Z,6.27
2019-02-05T08:34:35.897Z,7.15
2019-02-05T08:37:05.687Z,7.38
2019-02-05T08:39:35.694Z,7.53
2019-02-05T08:42:05.516Z,7.53
2019-02-05T08:44:35.180Z,7.03
2019-02-05T08:47:05.370Z,7.48
2019-02-05T08:49:35.107Z,7.00
2019-02-05T08:52:06.295Z,6.83
2019-02-05T08:54:35.988Z,6.40
2019-02-05T08:57:06.103Z,6.64
2019-02-05T08:59:35.938Z,7.16
2019-02-05T09:02:05.767Z,7.25
2019-02-05T09:04:35.393Z,6.57
2019-02-05T09:07:05.166Z,7.28
2019-02-05T09:09:34.807Z,7.13
2019-02-05T09:12:05.355Z,7.45
2019-02-05T09:14:35.084Z,7.60
2019-02-05T09:17:04.623Z,6.48
2019-02-05T09:19:34.224Z,6.27
2019-02-05T09:22:03.784Z,6.92
2019-02-05T09:24:33.458Z,7.00
2019-02-05T09:27:03.528Z,7.04
2019-02-05T09:29:33.767Z,7.13
2019-02-05T09:32:03.993Z,6.51
2019-02-05T09:34:33.733Z,7.06
2019-02-05T09:37:03.302Z,7.54
2019-02-05T09:39:33.108Z,7.32
2019-02-05T09:42:02.763Z,7.06
2019-02-05T09:44:32.552Z,7.17
2019-02-05T09:47:02.209Z,7.47
2019-02-05T09:49:32.091Z,7.29
2019-02-05T09:52:01.893Z,6.28
2019-02-05T09:54:31.797Z,6.92
2019-02-05T09:57:01.712Z,7.11
2019-02-05T09:59:31.741Z,6.41
2019-02-05T10:02:01.593Z,6.57
2019-02-05T10:04:31.572Z,7.12
2019-02-05T10:07:01.936Z,6.80
2019-02-05T10:09:31.726Z,6.91
2019-02-05T10:12:01.821Z,6.67
2019-02-05T10:14:31.832Z,7.56
2019-02-05T10:17:02.210Z,7.51
2019-02-05T10:19:31.840Z,7.20
2019-02-05T10:22:02.113Z,7.27
2019-02-05T10:24:31.812Z,6.90
2019-02-05T10:27:02.012Z,7.25
2019-02-05T10:29:31.647Z,7.19
2019-02-05T10:32:01.569Z,6.39
2019-02-05T10:34:34.217Z,6.85
2019-02-05T10:37:02.852Z,7.08
2019-02-05T10:39:33.191Z,7.94
2019-02-05T10:42:22.251Z,7.54
2019-02-05T10:44:51.918Z,7.06
2019-02-05T10:47:22.662Z,7.86
2019-02-05T10:49:52.301Z,6.70
2019-02-05T10:52:22.006Z,7.20
2019-02-05T10:54:51.736Z,6.98
2019-02-05T10:57:22.045Z,7.65
2019-02-05T10:59:54.368Z,7.51
2019-02-05T11:02:22.987Z,7.80
2019-02-05T11:04:52.502Z,8.04
2019-02-05T11:07:22.212Z,7.75
2019-02-05T11:09:52.065Z,7.29
2019-02-05T11:12:22.156Z,7.11
2019-02-05T11:14:51.847Z,7.48
2019-02-05T11:17:21.542Z,6.84
2019-02-05T11:19:51.136Z,7.46
2019-02-05T11:22:20.716Z,7.78
2019-02-05T11:24:50.406Z,6.98
2019-02-05T11:27:20.057Z,7.52
2019-02-05T11:29:49.998Z,7.33
2019-02-05T11:32:19.952Z,7.50
2019-02-05T11:34:49.750Z,7.82
2019-02-05T11:37:19.505Z,7.56
2019-02-05T11:39:49.150Z,7.48
2019-02-05T11:45:20.592Z,7.39
2019-02-05T11:47:51.071Z,6.54
2019-02-05T11:50:20.911Z,7.40
2019-02-05T11:52:51.396Z,7.56
2019-02-05T11:55:27.486Z,7.73
2019-02-05T11:57:57.291Z,7.74
2019-02-05T12:00:32.995Z,7.19
2019-02-05T12:03:03.300Z,6.46
2019-02-05T12:05:33.181Z,6.79
2019-02-05T12:08:03.109Z,6.92
2019-02-05T12:10:32.721Z,7.00
2019-02-05T12:13:02.396Z,7.57
2019-02-05T12:15:32.085Z,6.94
2019-02-05T12:18:01.777Z,6.93
2019-02-05T12:20:31.526Z,7.42
2019-02-05T12:23:01.687Z,6.62
2019-02-05T12:25:32.435Z,6.71
2019-02-05T12:28:02.239Z,6.71
2019-02-05T12:30:44.472Z,7.07
2019-02-05T12:33:08.151Z,6.86
2019-02-05T12:35:38.218Z,6.48
2019-02-05T12:38:08.573Z,6.63
2019-02-05T12:40:38.691Z,7.23
2019-02-05T12:43:08.654Z,6.89
2019-02-05T12:45:39.687Z,7.53
2019-02-05T12:48:09.590Z,7.88
2019-02-05T12:50:42.141Z,7.15
2019-02-05T12:53:11.893Z,7.36
2019-02-05T12:55:41.697Z,6.96
2019-02-05T12:58:11.361Z,6.54
2019-02-05T13:00:55.986Z,7.80
2019-02-05T13:03:16.377Z,7.18
2019-02-05T13:05:46.745Z,6.80
2019-02-05T13:08:16.470Z,7.61
2019-02-05T13:10:51.016Z,7.88
2019-02-05T13:13:21.810Z,7.76
2019-02-05T13:15:51.402Z,7.98
2019-02-05T13:18:21.579Z,8.23
2019-02-05T13:20:51.491Z,7.28
2019-02-05T13:23:21.194Z,7.06
2019-02-05T13:25:50.915Z,6.75
2019-02-05T13:28:20.521Z,8.05
2019-02-05T13:30:50.292Z,6.55
2019-02-05T13:33:20.340Z,7.33
2019-02-05T13:35:50.054Z,7.45
2019-02-05T13:38:19.727Z,7.70
2019-02-05T13:40:49.391Z,6.70
2019-02-05T13:43:19.189Z,6.43
2019-02-05T13:45:49.010Z,6.95
2019-02-05T13:48:18.667Z,7.55
2019-02-05T13:50:48.266Z,7.13
2019-02-05T13:53:18.050Z,6.91
2019-02-05T13:55:47.933Z,7.91
2019-02-05T13:58:17.533Z,7.49
2019-02-05T14:00:54.508Z,6.99
2019-02-05T14:03:24.159Z,7.47
2019-02-05T14:05:53.896Z,7.44
2019-02-05T14:08:23.495Z,6.69
2019-02-05T14:10:53.379Z,7.09
2019-02-05T14:13:23.009Z,7.17
2019-02-05T14:15:53.106Z,6.74
2019-02-05T14:18:23.248Z,7.57
2019-02-05T14:20:53.340Z,7.42
2019-02-05T14:23:22.995Z,6.64
2019-02-05T14:25:52.570Z,7.30
2019-02-05T14:28:22.188Z,7.69
2019-02-05T14:30:54.311Z,7.58
2019-02-05T14:33:24.174Z,7.70
2019-02-05T14:35:53.946Z,8.02
2019-02-05T14:38:23.663Z,8.13
2019-02-05T14:40:53.379Z,7.57
2019-02-05T14:43:23.354Z,7.57
2019-02-05T14:45:53.202Z,7.62
2019-02-05T14:48:23.263Z,7.85
2019-02-05T14:50:52.989Z,7.95
2019-02-05T14:53:22.785Z,6.82
2019-02-05T14:55:52.394Z,7.33
2019-02-05T14:58:22.616Z,7.44
2019-02-05T15:00:52.416Z,7.08
2019-02-05T15:03:22.033Z,7.88
2019-02-05T15:05:51.748Z,7.51
2019-02-05T15:08:21.443Z,7.66
2019-02-05T15:10:51.224Z,7.58
2019-02-05T15:13:21.081Z,6.68
2019-02-05T15:15:50.981Z,7.35
2019-02-05T15:18:21.391Z,7.74
2019-02-05T15:20:51.525Z,7.91
2019-02-05T15:23:21.904Z,7.48
2019-02-05T15:25:52.146Z,8.10
2019-02-05T15:28:22.289Z,8.04
2019-02-05T15:30:51.875Z,7.09
2019-02-05T15:33:35.809Z,6.98
2019-02-05T15:36:10.709Z,7.27
2019-02-05T15:38:40.305Z,7.72
2019-02-05T15:41:10.141Z,7.43
2019-02-05T15:43:39.889Z,7.33
2019-02-05T15:46:10.168Z,7.44
2019-02-05T15:48:39.719Z,6.98
2019-02-05T15:51:10.064Z,7.34
2019-02-05T15:53:39.650Z,7.45
2019-02-05T15:56:09.915Z,7.32
2019-02-05T15:58:39.956Z,7.68
2019-02-05T16:01:09.957Z,6.83
2019-02-05T16:03:39.709Z,7.82
2019-02-05T16:06:09.336Z,6.76
2019-02-05T16:08:38.965Z,7.32
2019-02-05T16:11:08.792Z,7.70
2019-02-05T16:13:38.530Z,8.00
2019-02-05T16:16:08.309Z,7.10
2019-02-05T16:18:37.974Z,7.91
2019-02-05T16:21:07.764Z,7.28
2019-02-05T16:23:37.581Z,6.94
2019-02-05T16:26:07.400Z,7.87
2019-02-05T16:28:37.195Z,7.22
2019-02-05T16:31:06.846Z,7.16
2019-02-05T16:33:37.009Z,7.87
2019-02-05T16:36:07.195Z,7.27
2019-02-05T16:38:36.829Z,7.44
2019-02-05T16:41:07.243Z,7.56
2019-02-05T16:43:37.008Z,7.39
2019-02-05T16:46:08.515Z,8.01
2019-02-05T16:48:38.800Z,7.23
2019-02-05T16:51:08.652Z,7.39
2019-02-05T16:53:38.470Z,7.32
2019-02-05T16:56:08.244Z,7.60
2019-02-05T16:58:37.811Z,7.39
2019-02-05T17:01:07.680Z,7.47
2019-02-05T17:03:37.805Z,7.70
2019-02-05T17:06:07.591Z,7.04
2019-02-05T17:08:37.299Z,7.87
2019-02-05T17:11:06.963Z,7.41
2019-02-05T17:13:36.728Z,7.47
2019-02-05T17:16:06.448Z,7.28
2019-02-05T17:18:36.546Z,7.95
2019-02-05T17:21:06.565Z,7.59
2019-02-05T17:23:36.227Z,7.95
2019-02-05T17:26:06.687Z,7.14
2019-02-05T17:28:36.306Z,7.33
2019-02-05T17:31:06.198Z,7.75
2019-02-05T17:33:35.944Z,7.64
2019-02-05T17:36:06.058Z,7.67
2019-02-05T17:38:35.726Z,7.78
2019-02-05T17:41:06.488Z,6.96
2019-02-05T17:43:36.099Z,7.70
2019-02-05T17:46:06.385Z,6.96
2019-02-05T17:48:36.118Z,7.60
2019-02-05T17:51:06.097Z,6.90
2019-02-05T17:53:35.958Z,7.44
2019-02-05T17:56:06.212Z,8.44
2019-02-05T17:58:36.020Z,8.27
2019-02-05T18:01:08.254Z,7.96
2019-02-05T18:03:38.035Z,7.90
2019-02-05T18:06:08.071Z,8.06
2019-02-05T18:08:37.795Z,8.27
2019-02-05T18:11:07.898Z,8.46
2019-02-05T18:13:37.617Z,8.23
2019-02-05T18:16:10.055Z,7.64
2019-02-05T18:18:39.849Z,8.41
2019-02-05T18:21:09.508Z,8.46
2019-02-05T18:23:39.284Z,8.24
2019-02-05T18:26:09.055Z,6.97
2019-02-05T18:28:39.092Z,7.66
2019-02-05T18:31:09.026Z,8.00
2019-02-05T18:33:38.700Z,8.44
2019-02-05T18:36:08.704Z,8.61
2019-02-05T18:38:38.506Z,8.53
2019-02-05T18:41:08.172Z,7.98
2019-02-05T18:43:38.009Z,7.97
2019-02-05T18:46:07.934Z,8.59
2019-02-05T18:48:38.078Z,8.32
2019-02-05T18:51:07.827Z,8.45
2019-02-05T18:53:38.089Z,8.80
2019-02-05T18:56:07.893Z,9.08
2019-02-05T18:58:38.149Z,8.72
2019-02-05T19:01:08.298Z,8.47
2019-02-05T19:03:38.233Z,8.39
2019-02-05T19:06:08.014Z,7.98
2019-02-05T19:08:37.993Z,9.02
2019-02-05T19:11:08.044Z,9.06
2019-02-05T19:13:37.838Z,8.31
2019-02-05T19:16:07.580Z,8.49
2019-02-05T19:18:37.461Z,8.31
2019-02-05T19:21:07.409Z,7.78
2019-02-05T19:23:37.529Z,7.74
2019-02-05T19:26:12.187Z,8.32
2019-02-05T19:28:41.919Z,7.87
2019-02-05T19:31:13.315Z,8.06
2019-02-05T19:33:43.193Z,7.55
2019-02-05T19:36:12.839Z,8.24
2019-02-05T19:38:42.633Z,8.26
2019-02-05T19:41:12.497Z,7.99
2019-02-05T19:43:42.538Z,7.92
2019-02-05T19:46:19.724Z,7.93
2019-02-05T19:48:50.963Z,8.24
2019-02-05T19:51:22.997Z,8.11
2019-02-05T19:53:54.022Z,8.24
2019-02-05T19:56:23.891Z,7.75
2019-02-05T19:58:53.608Z,8.27
2019-02-05T20:01:23.391Z,7.46
2019-02-05T20:03:53.066Z,7.55
2019-02-05T20:06:22.807Z,7.64
2019-02-05T20:08:53.179Z,8.09
2019-02-05T20:11:23.272Z,8.15
2019-02-05T20:13:53.143Z,7.84
2019-02-05T20:16:22.948Z,7.31
2019-02-05T20:18:52.676Z,7.70
2019-02-05T20:21:22.462Z,7.67
2019-02-05T20:23:52.207Z,8.28
2019-02-05T20:26:22.309Z,8.65
2019-02-05T20:28:52.022Z,8.37
2019-02-05T20:31:21.669Z,8.16
2019-02-05T20:33:51.624Z,8.26
2019-02-05T20:36:21.422Z,7.77
2019-02-05T20:38:51.349Z,8.14
2019-02-05T20:41:21.427Z,7.89
2019-02-05T20:43:51.537Z,7.67
2019-02-05T20:46:21.541Z,8.40
2019-02-05T20:48:51.320Z,8.22
2019-02-05T20:51:21.053Z,7.55
2019-02-05T20:53:52.904Z,7.84
2019-02-05T20:56:22.721Z,7.89
2019-02-05T20:58:52.568Z,8.18
2019-02-05T21:01:22.357Z,7.75
2019-02-05T21:04:01.030Z,7.78
2019-02-05T21:06:23.492Z,7.65
2019-02-05T21:08:53.391Z,8.07
2019-02-05T21:11:23.472Z,7.97
2019-02-05T21:13:53.619Z,8.04
2019-02-05T21:16:23.363Z,8.11
2019-02-05T21:18:53.229Z,8.21
2019-02-05T21:21:22.858Z,7.62
2019-02-05T21:23:52.643Z,8.25
2019-02-05T21:26:22.713Z,8.27
2019-02-05T21:28:52.516Z,8.16
2019-02-05T21:31:22.158Z,8.26
2019-02-05T21:33:51.953Z,7.69
2019-02-05T21:36:21.729Z,8.15
2019-02-05T21:38:51.347Z,7.70
2019-02-05T21:41:21.227Z,7.90
2019-02-05T21:43:51.625Z,8.04
2019-02-05T21:46:21.452Z,7.94
2019-02-05T21:48:51.030Z,8.06
2019-02-05T21:51:20.749Z,8.12
2019-02-05T21:53:50.432Z,8.34
2019-02-05T21:56:20.140Z,7.98
2019-02-05T21:58:50.701Z,7.89
2019-02-05T22:01:20.462Z,7.69
2019-02-05T22:03:50.276Z,8.35
2019-02-05T22:06:20.463Z,8.44
2019-02-05T22:08:50.370Z,8.14
2019-02-05T22:11:20.353Z,7.29
2019-02-05T22:13:50.644Z,8.13
2019-02-05T22:16:20.646Z,7.85
2019-02-05T22:18:50.333Z,7.58
2019-02-05T22:21:20.600Z,7.58
2019-02-05T22:23:50.782Z,8.10
2019-02-05T22:26:20.882Z,8.04
2019-02-05T22:28:51.903Z,7.93
2019-02-05T22:31:21.576Z,8.24
2019-02-05T22:33:51.452Z,8.02
2019-02-05T22:36:21.349Z,8.02
2019-02-05T22:38:51.238Z,8.13
2019-02-05T22:41:21.403Z,7.37
2019-02-05T22:43:52.122Z,7.64
2019-02-05T22:46:21.834Z,7.88
2019-02-05T22:48:51.906Z,6.97
2019-02-05T22:51:21.595Z,7.28
2019-02-05T22:53:51.417Z,7.85
2019-02-05T22:56:21.572Z,7.09
2019-02-05T22:58:51.525Z,7.74
2019-02-05T23:01:25.945Z,7.28
2019-02-05T23:04:00.785Z,8.31
2019-02-05T23:06:50.400Z,8.32
2019-02-05T23:09:33.219Z,7.22
2019-02-05T23:12:22.710Z,7.24
2019-02-05T23:15:03.264Z,7.96
2019-02-05T23:17:33.204Z,7.64
2019-02-05T23:20:02.912Z,7.32
2019-02-05T23:22:32.597Z,7.87
2019-02-05T23:25:02.345Z,7.64
2019-02-05T23:27:31.966Z,7.60
2019-02-05T23:30:01.777Z,7.72
2019-02-05T23:32:31.480Z,7.65
2019-02-05T23:35:02.745Z,7.73
2019-02-05T23:37:32.807Z,7.81
2019-02-05T23:40:03.044Z,7.83
2019-02-05T23:42:32.751Z,7.79
2019-02-05T23:45:02.477Z,7.80
2019-02-05T23:47:32.307Z,7.78
2019-02-05T23:50:01.815Z,7.54
2019-02-05T23:52:31.553Z,7.49
2019-02-05T23:55:01.662Z,7.64
2019-02-05T23:57:31.422Z,6.77
